RCL weather

Redcliffe Airport
Redcliffe, Penama, Vanuatu

Public forecast

Using degrees Celsius for public forecast. Weather courtesy of forecast.io.

METAR (pilot weather report)

Report is more than 6 hours old.

Closest report is Longana Airport, 12.5 nm (23.2 km) NE. Retrieved 2019/06/01 21:00 UTC (23 days ago):

NVSG 012100Z NI

TAF (pilot weather forecast)

Closest forecast is Longana Airport, 12.5 nm (23.2 km) NE. Retrieved 2019/06/24 18:00 UTC (3 hours ago):

TAF NVSG 241600Z 2418/2518 16012KT 9999 SCT020 PROB40 INTER 2418/2424 9000 -SHRA BKN018